sensor_id;sensor_type;location;lat;lon;timestamp;P1;durP1;ratioP1;P2;durP2;ratioP2
68072;SDS011;54862;51.502;7.446;2022-10-22T00:01:48;9.93;;;3.47;;
68072;SDS011;54862;51.502;7.446;2022-10-22T00:04:14;6.97;;;3.25;;
68072;SDS011;54862;51.502;7.446;2022-10-22T00:06:40;8.32;;;3.35;;
68072;SDS011;54862;51.502;7.446;2022-10-22T00:09:09;8.68;;;4.13;;
68072;SDS011;54862;51.502;7.446;2022-10-22T00:11:35;8.38;;;4.30;;
68072;SDS011;54862;51.502;7.446;2022-10-22T00:14:01;9.63;;;4.30;;
68072;SDS011;54862;51.502;7.446;2022-10-22T00:16:27;8.88;;;4.50;;
68072;SDS011;54862;51.502;7.446;2022-10-22T00:18:53;9.23;;;4.10;;
68072;SDS011;54862;51.502;7.446;2022-10-22T00:21:19;11.95;;;4.72;;
68072;SDS011;54862;51.502;7.446;2022-10-22T00:23:45;9.80;;;4.47;;
68072;SDS011;54862;51.502;7.446;2022-10-22T00:26:11;9.32;;;5.00;;
68072;SDS011;54862;51.502;7.446;2022-10-22T00:28:37;11.65;;;4.20;;
68072;SDS011;54862;51.502;7.446;2022-10-22T00:31:03;8.68;;;3.85;;
68072;SDS011;54862;51.502;7.446;2022-10-22T00:33:30;9.75;;;4.30;;
68072;SDS011;54862;51.502;7.446;2022-10-22T00:35:56;7.95;;;3.90;;
68072;SDS011;54862;51.502;7.446;2022-10-22T00:38:22;7.80;;;3.80;;
68072;SDS011;54862;51.502;7.446;2022-10-22T00:40:48;8.20;;;3.60;;
68072;SDS011;54862;51.502;7.446;2022-10-22T00:43:16;10.63;;;3.50;;
68072;SDS011;54862;51.502;7.446;2022-10-22T00:45:42;9.93;;;3.80;;
68072;SDS011;54862;51.502;7.446;2022-10-22T00:50:37;9.50;;;3.50;;
68072;SDS011;54862;51.502;7.446;2022-10-22T00:53:06;7.07;;;3.13;;
68072;SDS011;54862;51.502;7.446;2022-10-22T00:55:33;7.00;;;3.55;;
68072;SDS011;54862;51.502;7.446;2022-10-22T00:57:59;8.88;;;3.85;;
68072;SDS011;54862;51.502;7.446;2022-10-22T01:00:26;7.43;;;3.20;;
68072;SDS011;54862;51.502;7.446;2022-10-22T01:02:52;9.30;;;3.50;;
68072;SDS011;54862;51.502;7.446;2022-10-22T01:05:19;7.32;;;3.40;;
68072;SDS011;54862;51.502;7.446;2022-10-22T01:07:47;7.03;;;3.20;;
68072;SDS011;54862;51.502;7.446;2022-10-22T01:15:54;8.75;;;3.20;;
68072;SDS011;54862;51.502;7.446;2022-10-22T01:18:02;7.80;;;2.95;;
68072;SDS011;54862;51.502;7.446;2022-10-22T01:25:53;7.43;;;3.10;;
68072;SDS011;54862;51.502;7.446;2022-10-22T01:30:49;7.82;;;3.50;;
68072;SDS011;54862;51.502;7.446;2022-10-22T01:33:17;5.88;;;3.10;;
68072;SDS011;54862;51.502;7.446;2022-10-22T01:35:44;10.18;;;3.10;;
68072;SDS011;54862;51.502;7.446;2022-10-22T01:38:12;8.35;;;3.70;;
68072;SDS011;54862;51.502;7.446;2022-10-22T01:40:39;8.93;;;3.22;;
68072;SDS011;54862;51.502;7.446;2022-10-22T01:43:07;8.63;;;3.10;;
68072;SDS011;54862;51.502;7.446;2022-10-22T01:45:34;9.73;;;3.60;;
68072;SDS011;54862;51.502;7.446;2022-10-22T01:48:05;8.88;;;3.53;;
68072;SDS011;54862;51.502;7.446;2022-10-22T01:58:13;10.02;;;3.10;;
68072;SDS011;54862;51.502;7.446;2022-10-22T02:00:45;6.97;;;3.10;;
68072;SDS011;54862;51.502;7.446;2022-10-22T02:03:20;8.73;;;3.72;;
68072;SDS011;54862;51.502;7.446;2022-10-22T02:05:48;9.57;;;3.22;;
68072;SDS011;54862;51.502;7.446;2022-10-22T02:08:19;7.57;;;3.15;;
68072;SDS011;54862;51.502;7.446;2022-10-22T02:10:47;9.00;;;3.58;;
68072;SDS011;54862;51.502;7.446;2022-10-22T02:13:15;9.88;;;3.75;;
68072;SDS011;54862;51.502;7.446;2022-10-22T02:15:42;8.80;;;3.20;;
68072;SDS011;54862;51.502;7.446;2022-10-22T02:18:10;11.10;;;3.40;;
68072;SDS011;54862;51.502;7.446;2022-10-22T02:20:36;11.18;;;3.40;;
68072;SDS011;54862;51.502;7.446;2022-10-22T02:23:03;7.72;;;3.42;;
68072;SDS011;54862;51.502;7.446;2022-10-22T02:25:31;7.03;;;3.60;;
68072;SDS011;54862;51.502;7.446;2022-10-22T02:28:00;8.25;;;3.70;;
68072;SDS011;54862;51.502;7.446;2022-10-22T02:30:28;8.07;;;3.45;;
68072;SDS011;54862;51.502;7.446;2022-10-22T02:35:22;12.18;;;4.22;;
68072;SDS011;54862;51.502;7.446;2022-10-22T02:37:49;9.13;;;3.83;;
68072;SDS011;54862;51.502;7.446;2022-10-22T02:40:16;10.75;;;3.95;;
68072;SDS011;54862;51.502;7.446;2022-10-22T02:42:42;7.90;;;3.33;;
68072;SDS011;54862;51.502;7.446;2022-10-22T02:45:08;9.60;;;3.53;;
68072;SDS011;54862;51.502;7.446;2022-10-22T02:47:34;10.05;;;3.90;;
68072;SDS011;54862;51.502;7.446;2022-10-22T02:50:00;9.98;;;4.28;;
68072;SDS011;54862;51.502;7.446;2022-10-22T02:52:26;9.68;;;3.65;;
68072;SDS011;54862;51.502;7.446;2022-10-22T02:54:52;8.25;;;3.80;;
68072;SDS011;54862;51.502;7.446;2022-10-22T02:57:18;7.43;;;3.75;;
68072;SDS011;54862;51.502;7.446;2022-10-22T02:59:44;9.52;;;4.03;;
68072;SDS011;54862;51.502;7.446;2022-10-22T03:02:10;6.82;;;3.65;;
68072;SDS011;54862;51.502;7.446;2022-10-22T03:04:36;8.93;;;3.75;;
68072;SDS011;54862;51.502;7.446;2022-10-22T03:07:02;9.63;;;3.47;;
68072;SDS011;54862;51.502;7.446;2022-10-22T03:09:28;9.63;;;4.22;;
68072;SDS011;54862;51.502;7.446;2022-10-22T03:11:54;11.80;;;3.75;;
68072;SDS011;54862;51.502;7.446;2022-10-22T03:14:20;10.82;;;4.13;;
68072;SDS011;54862;51.502;7.446;2022-10-22T03:16:46;9.30;;;4.43;;
68072;SDS011;54862;51.502;7.446;2022-10-22T03:19:12;8.32;;;3.78;;
68072;SDS011;54862;51.502;7.446;2022-10-22T03:21:44;14.35;;;4.25;;
68072;SDS011;54862;51.502;7.446;2022-10-22T03:24:12;9.43;;;3.88;;
68072;SDS011;54862;51.502;7.446;2022-10-22T03:26:39;9.48;;;4.22;;
68072;SDS011;54862;51.502;7.446;2022-10-22T03:29:05;9.90;;;3.90;;
68072;SDS011;54862;51.502;7.446;2022-10-22T03:31:31;11.07;;;4.20;;
68072;SDS011;54862;51.502;7.446;2022-10-22T03:33:57;11.55;;;4.38;;
68072;SDS011;54862;51.502;7.446;2022-10-22T03:36:24;11.80;;;4.50;;
68072;SDS011;54862;51.502;7.446;2022-10-22T03:38:50;8.82;;;4.38;;
68072;SDS011;54862;51.502;7.446;2022-10-22T03:41:16;7.88;;;3.70;;
68072;SDS011;54862;51.502;7.446;2022-10-22T03:43:42;8.32;;;3.95;;
68072;SDS011;54862;51.502;7.446;2022-10-22T03:46:13;9.45;;;4.25;;
68072;SDS011;54862;51.502;7.446;2022-10-22T03:48:39;10.27;;;4.15;;
68072;SDS011;54862;51.502;7.446;2022-10-22T03:51:05;9.57;;;3.63;;
68072;SDS011;54862;51.502;7.446;2022-10-22T03:53:31;9.70;;;3.95;;
68072;SDS011;54862;51.502;7.446;2022-10-22T03:55:57;9.70;;;4.25;;
68072;SDS011;54862;51.502;7.446;2022-10-22T03:58:23;11.35;;;4.68;;
68072;SDS011;54862;51.502;7.446;2022-10-22T04:00:49;11.93;;;5.03;;
68072;SDS011;54862;51.502;7.446;2022-10-22T04:03:15;12.43;;;4.38;;
68072;SDS011;54862;51.502;7.446;2022-10-22T04:05:41;10.55;;;4.55;;
68072;SDS011;54862;51.502;7.446;2022-10-22T04:08:07;9.10;;;4.55;;
68072;SDS011;54862;51.502;7.446;2022-10-22T04:10:33;10.02;;;4.35;;
68072;SDS011;54862;51.502;7.446;2022-10-22T04:12:59;9.43;;;4.45;;
68072;SDS011;54862;51.502;7.446;2022-10-22T04:15:25;14.40;;;4.80;;
68072;SDS011;54862;51.502;7.446;2022-10-22T04:17:53;11.57;;;4.45;;
68072;SDS011;54862;51.502;7.446;2022-10-22T04:20:19;11.48;;;4.18;;
68072;SDS011;54862;51.502;7.446;2022-10-22T04:22:45;8.90;;;4.38;;
68072;SDS011;54862;51.502;7.446;2022-10-22T04:25:11;10.98;;;4.40;;
68072;SDS011;54862;51.502;7.446;2022-10-22T04:27:37;11.20;;;4.70;;
68072;SDS011;54862;51.502;7.446;2022-10-22T04:30:03;10.63;;;4.60;;
68072;SDS011;54862;51.502;7.446;2022-10-22T04:32:30;9.20;;;4.65;;
68072;SDS011;54862;51.502;7.446;2022-10-22T04:34:56;11.10;;;4.45;;
68072;SDS011;54862;51.502;7.446;2022-10-22T04:37:22;10.82;;;4.55;;
68072;SDS011;54862;51.502;7.446;2022-10-22T04:39:48;8.13;;;4.50;;
68072;SDS011;54862;51.502;7.446;2022-10-22T04:42:14;11.20;;;4.72;;
68072;SDS011;54862;51.502;7.446;2022-10-22T04:44:40;8.95;;;4.45;;
68072;SDS011;54862;51.502;7.446;2022-10-22T04:47:06;12.18;;;4.88;;
68072;SDS011;54862;51.502;7.446;2022-10-22T04:49:32;12.10;;;5.10;;
68072;SDS011;54862;51.502;7.446;2022-10-22T04:51:58;12.50;;;5.03;;
68072;SDS011;54862;51.502;7.446;2022-10-22T04:54:24;10.45;;;4.55;;
68072;SDS011;54862;51.502;7.446;2022-10-22T04:56:50;10.65;;;4.60;;
68072;SDS011;54862;51.502;7.446;2022-10-22T04:59:16;11.80;;;4.85;;
68072;SDS011;54862;51.502;7.446;2022-10-22T05:01:43;10.02;;;4.60;;
68072;SDS011;54862;51.502;7.446;2022-10-22T05:04:13;9.15;;;4.63;;
68072;SDS011;54862;51.502;7.446;2022-10-22T05:06:40;12.68;;;5.28;;
68072;SDS011;54862;51.502;7.446;2022-10-22T05:09:07;16.80;;;5.00;;
68072;SDS011;54862;51.502;7.446;2022-10-22T05:11:36;11.13;;;5.35;;
68072;SDS011;54862;51.502;7.446;2022-10-22T05:14:03;9.85;;;4.80;;
68072;SDS011;54862;51.502;7.446;2022-10-22T05:16:30;9.65;;;4.97;;
68072;SDS011;54862;51.502;7.446;2022-10-22T05:18:57;11.73;;;5.18;;
68072;SDS011;54862;51.502;7.446;2022-10-22T05:21:24;10.00;;;4.97;;
68072;SDS011;54862;51.502;7.446;2022-10-22T05:23:50;10.88;;;5.03;;
68072;SDS011;54862;51.502;7.446;2022-10-22T05:26:17;13.35;;;4.65;;
68072;SDS011;54862;51.502;7.446;2022-10-22T05:28:44;8.20;;;4.50;;
68072;SDS011;54862;51.502;7.446;2022-10-22T05:31:10;14.35;;;4.60;;
68072;SDS011;54862;51.502;7.446;2022-10-22T05:33:37;11.50;;;4.82;;
68072;SDS011;54862;51.502;7.446;2022-10-22T05:36:04;14.85;;;5.20;;
68072;SDS011;54862;51.502;7.446;2022-10-22T05:38:31;12.57;;;5.28;;
68072;SDS011;54862;51.502;7.446;2022-10-22T05:41:08;14.07;;;4.60;;
68072;SDS011;54862;51.502;7.446;2022-10-22T05:43:34;12.05;;;5.05;;
68072;SDS011;54862;51.502;7.446;2022-10-22T05:46:05;16.27;;;5.20;;
68072;SDS011;54862;51.502;7.446;2022-10-22T05:48:31;11.55;;;5.22;;
68072;SDS011;54862;51.502;7.446;2022-10-22T05:51:00;11.18;;;5.47;;
68072;SDS011;54862;51.502;7.446;2022-10-22T05:53:28;12.68;;;5.00;;
68072;SDS011;54862;51.502;7.446;2022-10-22T05:55:54;11.70;;;4.82;;
68072;SDS011;54862;51.502;7.446;2022-10-22T05:58:20;13.10;;;4.85;;
68072;SDS011;54862;51.502;7.446;2022-10-22T06:00:46;14.77;;;4.80;;
68072;SDS011;54862;51.502;7.446;2022-10-22T06:03:12;10.43;;;4.63;;
68072;SDS011;54862;51.502;7.446;2022-10-22T06:05:38;12.18;;;5.63;;
68072;SDS011;54862;51.502;7.446;2022-10-22T06:08:04;12.52;;;5.18;;
68072;SDS011;54862;51.502;7.446;2022-10-22T06:10:30;10.23;;;4.85;;
68072;SDS011;54862;51.502;7.446;2022-10-22T06:12:56;8.70;;;4.82;;
68072;SDS011;54862;51.502;7.446;2022-10-22T06:15:22;11.50;;;5.15;;
68072;SDS011;54862;51.502;7.446;2022-10-22T06:17:48;11.20;;;4.75;;
68072;SDS011;54862;51.502;7.446;2022-10-22T06:20:14;11.32;;;5.38;;
68072;SDS011;54862;51.502;7.446;2022-10-22T06:22:40;11.77;;;5.35;;
68072;SDS011;54862;51.502;7.446;2022-10-22T06:25:06;12.45;;;5.10;;
68072;SDS011;54862;51.502;7.446;2022-10-22T06:27:33;11.77;;;5.57;;
68072;SDS011;54862;51.502;7.446;2022-10-22T06:29:59;10.25;;;5.22;;
68072;SDS011;54862;51.502;7.446;2022-10-22T06:32:25;12.35;;;5.70;;
68072;SDS011;54862;51.502;7.446;2022-10-22T06:34:51;13.70;;;5.38;;
68072;SDS011;54862;51.502;7.446;2022-10-22T06:37:17;12.57;;;5.63;;
68072;SDS011;54862;51.502;7.446;2022-10-22T06:39:43;13.60;;;5.60;;
68072;SDS011;54862;51.502;7.446;2022-10-22T06:42:09;10.32;;;5.88;;
68072;SDS011;54862;51.502;7.446;2022-10-22T06:44:35;10.52;;;5.03;;
68072;SDS011;54862;51.502;7.446;2022-10-22T06:47:01;15.50;;;5.88;;
68072;SDS011;54862;51.502;7.446;2022-10-22T06:49:27;14.10;;;6.07;;
68072;SDS011;54862;51.502;7.446;2022-10-22T06:51:53;12.63;;;5.68;;
68072;SDS011;54862;51.502;7.446;2022-10-22T06:54:22;12.15;;;5.93;;
68072;SDS011;54862;51.502;7.446;2022-10-22T06:56:48;10.73;;;6.30;;
68072;SDS011;54862;51.502;7.446;2022-10-22T06:59:14;10.93;;;5.88;;
68072;SDS011;54862;51.502;7.446;2022-10-22T07:01:40;15.48;;;6.35;;
68072;SDS011;54862;51.502;7.446;2022-10-22T07:04:07;12.13;;;6.25;;
68072;SDS011;54862;51.502;7.446;2022-10-22T07:06:34;14.50;;;6.47;;
68072;SDS011;54862;51.502;7.446;2022-10-22T07:09:00;11.63;;;6.05;;
68072;SDS011;54862;51.502;7.446;2022-10-22T07:11:27;16.55;;;6.78;;
68072;SDS011;54862;51.502;7.446;2022-10-22T07:13:54;13.60;;;6.82;;
68072;SDS011;54862;51.502;7.446;2022-10-22T07:16:20;11.15;;;5.80;;
68072;SDS011;54862;51.502;7.446;2022-10-22T07:18:46;13.60;;;6.72;;
68072;SDS011;54862;51.502;7.446;2022-10-22T07:21:13;14.82;;;6.55;;
68072;SDS011;54862;51.502;7.446;2022-10-22T07:23:40;12.05;;;6.68;;
68072;SDS011;54862;51.502;7.446;2022-10-22T07:26:06;16.80;;;6.50;;
68072;SDS011;54862;51.502;7.446;2022-10-22T07:28:33;12.93;;;5.88;;
68072;SDS011;54862;51.502;7.446;2022-10-22T07:31:00;12.38;;;5.50;;
68072;SDS011;54862;51.502;7.446;2022-10-22T07:33:26;14.75;;;5.95;;
68072;SDS011;54862;51.502;7.446;2022-10-22T07:35:59;11.07;;;5.88;;
68072;SDS011;54862;51.502;7.446;2022-10-22T07:38:25;10.50;;;5.45;;
68072;SDS011;54862;51.502;7.446;2022-10-22T07:40:51;14.77;;;5.20;;
68072;SDS011;54862;51.502;7.446;2022-10-22T07:43:17;10.02;;;4.75;;
68072;SDS011;54862;51.502;7.446;2022-10-22T07:45:43;10.80;;;5.05;;
68072;SDS011;54862;51.502;7.446;2022-10-22T07:48:09;13.38;;;5.80;;
68072;SDS011;54862;51.502;7.446;2022-10-22T07:50:36;14.18;;;4.57;;
68072;SDS011;54862;51.502;7.446;2022-10-22T07:53:02;14.50;;;5.32;;
68072;SDS011;54862;51.502;7.446;2022-10-22T07:55:28;11.63;;;4.60;;
68072;SDS011;54862;51.502;7.446;2022-10-22T07:57:54;13.13;;;5.13;;
68072;SDS011;54862;51.502;7.446;2022-10-22T08:00:20;10.43;;;4.60;;
68072;SDS011;54862;51.502;7.446;2022-10-22T08:02:46;16.38;;;4.32;;
68072;SDS011;54862;51.502;7.446;2022-10-22T08:05:12;10.85;;;4.75;;
68072;SDS011;54862;51.502;7.446;2022-10-22T08:07:38;9.27;;;4.75;;
68072;SDS011;54862;51.502;7.446;2022-10-22T08:10:05;12.73;;;4.40;;
68072;SDS011;54862;51.502;7.446;2022-10-22T08:12:31;12.45;;;4.57;;
68072;SDS011;54862;51.502;7.446;2022-10-22T08:14:57;9.73;;;4.13;;
68072;SDS011;54862;51.502;7.446;2022-10-22T08:17:24;12.45;;;4.40;;
68072;SDS011;54862;51.502;7.446;2022-10-22T08:19:50;10.48;;;4.28;;
68072;SDS011;54862;51.502;7.446;2022-10-22T08:22:16;11.10;;;3.88;;
68072;SDS011;54862;51.502;7.446;2022-10-22T08:24:42;11.75;;;3.97;;
68072;SDS011;54862;51.502;7.446;2022-10-22T08:27:08;11.13;;;3.65;;
68072;SDS011;54862;51.502;7.446;2022-10-22T08:29:34;9.45;;;3.60;;
68072;SDS011;54862;51.502;7.446;2022-10-22T08:32:00;9.90;;;4.22;;
68072;SDS011;54862;51.502;7.446;2022-10-22T08:34:27;8.00;;;3.40;;
68072;SDS011;54862;51.502;7.446;2022-10-22T08:36:53;12.93;;;3.53;;
68072;SDS011;54862;51.502;7.446;2022-10-22T08:39:19;11.88;;;3.45;;
68072;SDS011;54862;51.502;7.446;2022-10-22T08:50:08;8.95;;;3.67;;
68072;SDS011;54862;51.502;7.446;2022-10-22T08:52:34;10.90;;;3.33;;
68072;SDS011;54862;51.502;7.446;2022-10-22T08:55:02;9.45;;;3.30;;
68072;SDS011;54862;51.502;7.446;2022-10-22T08:57:32;10.98;;;3.22;;
68072;SDS011;54862;51.502;7.446;2022-10-22T09:00:11;10.80;;;3.50;;
68072;SDS011;54862;51.502;7.446;2022-10-22T09:07:43;10.45;;;3.00;;
68072;SDS011;54862;51.502;7.446;2022-10-22T09:10:14;9.88;;;3.08;;
68072;SDS011;54862;51.502;7.446;2022-10-22T09:12:40;11.50;;;3.17;;
68072;SDS011;54862;51.502;7.446;2022-10-22T09:15:10;8.68;;;3.33;;
68072;SDS011;54862;51.502;7.446;2022-10-22T09:17:44;8.55;;;3.00;;
68072;SDS011;54862;51.502;7.446;2022-10-22T09:20:15;8.48;;;3.00;;
68072;SDS011;54862;51.502;7.446;2022-10-22T09:25:35;11.30;;;3.38;;
68072;SDS011;54862;51.502;7.446;2022-10-22T09:28:02;10.55;;;3.40;;
68072;SDS011;54862;51.502;7.446;2022-10-22T09:30:29;10.18;;;3.25;;
68072;SDS011;54862;51.502;7.446;2022-10-22T09:35:24;8.55;;;3.30;;
68072;SDS011;54862;51.502;7.446;2022-10-22T09:37:53;7.43;;;3.10;;
68072;SDS011;54862;51.502;7.446;2022-10-22T09:40:20;8.40;;;3.30;;
68072;SDS011;54862;51.502;7.446;2022-10-22T09:42:47;7.32;;;3.20;;
68072;SDS011;54862;51.502;7.446;2022-10-22T09:45:20;10.30;;;3.28;;
68072;SDS011;54862;51.502;7.446;2022-10-22T09:47:48;9.43;;;3.42;;
68072;SDS011;54862;51.502;7.446;2022-10-22T09:50:21;7.28;;;3.20;;
68072;SDS011;54862;51.502;7.446;2022-10-22T09:53:10;20.58;;;4.03;;
68072;SDS011;54862;51.502;7.446;2022-10-22T09:55:38;10.07;;;3.30;;
68072;SDS011;54862;51.502;7.446;2022-10-22T09:58:04;9.10;;;3.60;;
68072;SDS011;54862;51.502;7.446;2022-10-22T10:00:30;9.27;;;2.60;;
68072;SDS011;54862;51.502;7.446;2022-10-22T10:02:56;8.00;;;3.20;;
68072;SDS011;54862;51.502;7.446;2022-10-22T10:05:30;8.70;;;2.60;;
68072;SDS011;54862;51.502;7.446;2022-10-22T10:07:57;8.05;;;2.97;;
68072;SDS011;54862;51.502;7.446;2022-10-22T10:10:28;10.85;;;2.92;;
68072;SDS011;54862;51.502;7.446;2022-10-22T10:13:04;7.22;;;2.72;;
68072;SDS011;54862;51.502;7.446;2022-10-22T10:20:53;8.32;;;2.65;;
68072;SDS011;54862;51.502;7.446;2022-10-22T10:23:26;7.38;;;2.45;;
68072;SDS011;54862;51.502;7.446;2022-10-22T10:28:46;8.82;;;2.97;;
68072;SDS011;54862;51.502;7.446;2022-10-22T10:33:50;11.27;;;3.00;;
68072;SDS011;54862;51.502;7.446;2022-10-22T10:36:23;8.50;;;2.50;;
68072;SDS011;54862;51.502;7.446;2022-10-22T10:41:22;10.07;;;2.55;;
68072;SDS011;54862;51.502;7.446;2022-10-22T10:49:33;8.93;;;2.50;;
68072;SDS011;54862;51.502;7.446;2022-10-22T10:52:19;7.30;;;2.50;;
68072;SDS011;54862;51.502;7.446;2022-10-22T11:00:09;8.18;;;2.30;;
68072;SDS011;54862;51.502;7.446;2022-10-22T11:06:03;7.32;;;2.10;;
68072;SDS011;54862;51.502;7.446;2022-10-22T11:10:40;5.45;;;2.35;;
68072;SDS011;54862;51.502;7.446;2022-10-22T11:15:49;9.43;;;2.55;;
68072;SDS011;54862;51.502;7.446;2022-10-22T11:18:26;9.35;;;2.20;;
68072;SDS011;54862;51.502;7.446;2022-10-22T11:21:08;9.35;;;2.60;;
68072;SDS011;54862;51.502;7.446;2022-10-22T11:26:01;9.15;;;2.17;;
68072;SDS011;54862;51.502;7.446;2022-10-22T11:30:58;6.15;;;1.98;;
68072;SDS011;54862;51.502;7.446;2022-10-22T11:33:26;6.85;;;2.10;;
68072;SDS011;54862;51.502;7.446;2022-10-22T11:35:53;5.57;;;2.00;;
68072;SDS011;54862;51.502;7.446;2022-10-22T11:38:21;6.63;;;1.95;;
68072;SDS011;54862;51.502;7.446;2022-10-22T11:40:59;7.53;;;2.03;;
68072;SDS011;54862;51.502;7.446;2022-10-22T11:43:27;4.20;;;1.75;;
68072;SDS011;54862;51.502;7.446;2022-10-22T11:46:25;9.02;;;2.10;;
68072;SDS011;54862;51.502;7.446;2022-10-22T11:48:42;3.67;;;1.77;;
68072;SDS011;54862;51.502;7.446;2022-10-22T11:53:56;8.90;;;2.25;;
68072;SDS011;54862;51.502;7.446;2022-10-22T11:56:25;6.82;;;2.00;;
68072;SDS011;54862;51.502;7.446;2022-10-22T11:58:53;5.90;;;1.83;;
68072;SDS011;54862;51.502;7.446;2022-10-22T12:01:26;7.38;;;2.30;;
68072;SDS011;54862;51.502;7.446;2022-10-22T12:06:19;6.57;;;1.90;;
68072;SDS011;54862;51.502;7.446;2022-10-22T12:11:16;7.43;;;2.10;;
68072;SDS011;54862;51.502;7.446;2022-10-22T12:16:14;6.18;;;1.98;;
68072;SDS011;54862;51.502;7.446;2022-10-22T12:18:40;7.25;;;1.95;;
68072;SDS011;54862;51.502;7.446;2022-10-22T12:21:10;5.22;;;1.65;;
68072;SDS011;54862;51.502;7.446;2022-10-22T12:23:36;5.72;;;1.70;;
68072;SDS011;54862;51.502;7.446;2022-10-22T12:26:03;8.98;;;1.83;;
68072;SDS011;54862;51.502;7.446;2022-10-22T12:28:36;4.72;;;1.75;;
68072;SDS011;54862;51.502;7.446;2022-10-22T12:31:02;5.65;;;2.03;;
68072;SDS011;54862;51.502;7.446;2022-10-22T12:33:28;6.50;;;1.65;;
68072;SDS011;54862;51.502;7.446;2022-10-22T12:35:56;10.82;;;1.92;;
68072;SDS011;54862;51.502;7.446;2022-10-22T12:38:27;2.78;;;1.52;;
68072;SDS011;54862;51.502;7.446;2022-10-22T12:40:54;8.10;;;1.92;;
68072;SDS011;54862;51.502;7.446;2022-10-22T12:43:25;3.95;;;1.90;;
68072;SDS011;54862;51.502;7.446;2022-10-22T12:45:51;4.22;;;1.77;;
68072;SDS011;54862;51.502;7.446;2022-10-22T12:48:19;3.42;;;1.52;;
68072;SDS011;54862;51.502;7.446;2022-10-22T12:51:05;5.13;;;1.50;;
68072;SDS011;54862;51.502;7.446;2022-10-22T12:53:37;7.30;;;1.80;;
68072;SDS011;54862;51.502;7.446;2022-10-22T12:56:04;5.18;;;1.63;;
68072;SDS011;54862;51.502;7.446;2022-10-22T12:58:33;4.60;;;1.42;;
68072;SDS011;54862;51.502;7.446;2022-10-22T13:01:01;9.90;;;1.58;;
68072;SDS011;54862;51.502;7.446;2022-10-22T13:03:40;5.20;;;1.70;;
68072;SDS011;54862;51.502;7.446;2022-10-22T13:08:44;2.97;;;1.58;;
68072;SDS011;54862;51.502;7.446;2022-10-22T13:11:19;6.75;;;1.90;;
68072;SDS011;54862;51.502;7.446;2022-10-22T13:13:45;6.40;;;1.60;;
68072;SDS011;54862;51.502;7.446;2022-10-22T13:16:12;5.28;;;1.60;;
68072;SDS011;54862;51.502;7.446;2022-10-22T13:18:38;4.63;;;1.55;;
68072;SDS011;54862;51.502;7.446;2022-10-22T13:21:04;4.30;;;1.70;;
68072;SDS011;54862;51.502;7.446;2022-10-22T13:23:31;4.95;;;1.60;;
68072;SDS011;54862;51.502;7.446;2022-10-22T13:25:59;4.60;;;1.67;;
68072;SDS011;54862;51.502;7.446;2022-10-22T13:28:25;6.55;;;1.80;;
68072;SDS011;54862;51.502;7.446;2022-10-22T13:30:53;5.07;;;1.80;;
68072;SDS011;54862;51.502;7.446;2022-10-22T13:33:28;6.45;;;1.83;;
68072;SDS011;54862;51.502;7.446;2022-10-22T13:35:54;4.32;;;1.67;;
68072;SDS011;54862;51.502;7.446;2022-10-22T13:38:22;6.43;;;1.80;;
68072;SDS011;54862;51.502;7.446;2022-10-22T13:40:49;4.82;;;1.73;;
68072;SDS011;54862;51.502;7.446;2022-10-22T13:43:15;7.05;;;2.15;;
68072;SDS011;54862;51.502;7.446;2022-10-22T13:45:41;4.40;;;1.55;;
68072;SDS011;54862;51.502;7.446;2022-10-22T13:48:11;9.50;;;1.75;;
68072;SDS011;54862;51.502;7.446;2022-10-22T13:50:38;8.60;;;1.77;;
68072;SDS011;54862;51.502;7.446;2022-10-22T13:53:04;5.32;;;1.42;;
68072;SDS011;54862;51.502;7.446;2022-10-22T13:55:32;4.68;;;1.60;;
68072;SDS011;54862;51.502;7.446;2022-10-22T13:58:11;4.15;;;1.50;;
68072;SDS011;54862;51.502;7.446;2022-10-22T14:00:38;10.18;;;2.00;;
68072;SDS011;54862;51.502;7.446;2022-10-22T14:03:07;5.15;;;1.58;;
68072;SDS011;54862;51.502;7.446;2022-10-22T14:05:34;6.25;;;1.85;;
68072;SDS011;54862;51.502;7.446;2022-10-22T14:08:00;6.03;;;1.80;;
68072;SDS011;54862;51.502;7.446;2022-10-22T14:10:26;6.18;;;1.40;;
68072;SDS011;54862;51.502;7.446;2022-10-22T14:12:52;4.15;;;1.50;;
68072;SDS011;54862;51.502;7.446;2022-10-22T14:15:22;4.47;;;1.75;;
68072;SDS011;54862;51.502;7.446;2022-10-22T14:17:50;7.50;;;1.70;;
68072;SDS011;54862;51.502;7.446;2022-10-22T14:20:19;5.22;;;1.60;;
68072;SDS011;54862;51.502;7.446;2022-10-22T14:22:46;1.88;;;1.35;;
68072;SDS011;54862;51.502;7.446;2022-10-22T14:25:16;6.13;;;1.42;;
68072;SDS011;54862;51.502;7.446;2022-10-22T14:27:42;7.72;;;1.95;;
68072;SDS011;54862;51.502;7.446;2022-10-22T14:30:08;5.25;;;1.75;;
68072;SDS011;54862;51.502;7.446;2022-10-22T14:32:38;4.13;;;1.63;;
68072;SDS011;54862;51.502;7.446;2022-10-22T14:35:04;6.00;;;1.70;;
68072;SDS011;54862;51.502;7.446;2022-10-22T14:37:30;4.53;;;1.70;;
68072;SDS011;54862;51.502;7.446;2022-10-22T14:39:56;8.82;;;1.80;;
68072;SDS011;54862;51.502;7.446;2022-10-22T14:42:26;5.50;;;1.63;;
68072;SDS011;54862;51.502;7.446;2022-10-22T14:44:52;2.83;;;1.70;;
68072;SDS011;54862;51.502;7.446;2022-10-22T14:47:18;5.10;;;1.65;;
68072;SDS011;54862;51.502;7.446;2022-10-22T14:49:44;6.40;;;1.70;;
68072;SDS011;54862;51.502;7.446;2022-10-22T14:52:10;5.55;;;1.60;;
68072;SDS011;54862;51.502;7.446;2022-10-22T14:54:36;6.97;;;2.28;;
68072;SDS011;54862;51.502;7.446;2022-10-22T14:57:02;5.07;;;1.48;;
68072;SDS011;54862;51.502;7.446;2022-10-22T14:59:29;4.45;;;1.58;;
68072;SDS011;54862;51.502;7.446;2022-10-22T15:01:55;6.10;;;2.00;;
68072;SDS011;54862;51.502;7.446;2022-10-22T15:04:21;3.90;;;1.60;;
68072;SDS011;54862;51.502;7.446;2022-10-22T15:06:49;4.82;;;1.75;;
68072;SDS011;54862;51.502;7.446;2022-10-22T15:09:20;7.85;;;2.42;;
68072;SDS011;54862;51.502;7.446;2022-10-22T15:11:46;7.03;;;1.88;;
68072;SDS011;54862;51.502;7.446;2022-10-22T15:14:12;5.57;;;1.85;;
68072;SDS011;54862;51.502;7.446;2022-10-22T15:16:39;7.05;;;1.70;;
68072;SDS011;54862;51.502;7.446;2022-10-22T15:19:05;5.18;;;1.75;;
68072;SDS011;54862;51.502;7.446;2022-10-22T15:21:31;11.27;;;2.13;;
68072;SDS011;54862;51.502;7.446;2022-10-22T15:23:57;4.88;;;1.88;;
68072;SDS011;54862;51.502;7.446;2022-10-22T15:26:24;8.27;;;2.00;;
68072;SDS011;54862;51.502;7.446;2022-10-22T15:28:51;3.47;;;1.80;;
68072;SDS011;54862;51.502;7.446;2022-10-22T15:31:18;3.45;;;1.80;;
68072;SDS011;54862;51.502;7.446;2022-10-22T15:34:04;5.50;;;1.95;;
68072;SDS011;54862;51.502;7.446;2022-10-22T15:36:30;4.50;;;1.63;;
68072;SDS011;54862;51.502;7.446;2022-10-22T15:38:56;4.47;;;2.30;;
68072;SDS011;54862;51.502;7.446;2022-10-22T15:41:22;5.70;;;1.90;;
68072;SDS011;54862;51.502;7.446;2022-10-22T15:43:48;7.10;;;2.10;;
68072;SDS011;54862;51.502;7.446;2022-10-22T15:46:15;4.85;;;2.05;;
68072;SDS011;54862;51.502;7.446;2022-10-22T15:48:41;5.53;;;2.08;;
68072;SDS011;54862;51.502;7.446;2022-10-22T15:51:14;3.90;;;1.98;;
68072;SDS011;54862;51.502;7.446;2022-10-22T15:53:41;6.78;;;2.15;;
68072;SDS011;54862;51.502;7.446;2022-10-22T15:56:07;4.55;;;2.08;;
68072;SDS011;54862;51.502;7.446;2022-10-22T15:58:33;9.02;;;2.42;;
68072;SDS011;54862;51.502;7.446;2022-10-22T16:01:03;6.75;;;2.25;;
68072;SDS011;54862;51.502;7.446;2022-10-22T16:03:30;5.78;;;2.40;;
68072;SDS011;54862;51.502;7.446;2022-10-22T16:05:56;7.60;;;2.40;;
68072;SDS011;54862;51.502;7.446;2022-10-22T16:08:22;4.97;;;2.10;;
68072;SDS011;54862;51.502;7.446;2022-10-22T16:10:48;6.63;;;2.47;;
68072;SDS011;54862;51.502;7.446;2022-10-22T16:13:14;9.10;;;2.40;;
68072;SDS011;54862;51.502;7.446;2022-10-22T16:15:41;6.75;;;1.95;;
68072;SDS011;54862;51.502;7.446;2022-10-22T16:18:07;6.55;;;2.20;;
68072;SDS011;54862;51.502;7.446;2022-10-22T16:20:37;4.80;;;2.58;;